Terminal Aerodrome Forecast
Issued by NWS

Home | Current Version | Previous Version | Text Only | Print | Product List | Glossary On
Versions: 1 2 3 4 5 6 7 8 9 10 11 12 13 14 15
000
FTUS44 KSJT 280951 AAA
TAFJCT
TAF AMD
KJCT 280951Z 2810/2906 VRB06KT P6SM SKC
     FM281030 VRB06KT P6SM OVC008
     FM281400 16007KT P6SM BKN015
     FM281700 15011KT P6SM SCT040
     FM282100 14011KT P6SM OVC250 PROB30 2900/2906 P6SM -TSRA
      BKN050CB=

USA.gov is the U.S. government's official web portal to all federal, state and local government web resources and services.